Collingwood, Canada
Current Conditions -  °F | °C
As of 2:00 AM on Friday 31 Oct 2014 (Local Time) from CYBN Reporting Station
Light Rain Light Rain  
Wind Chill: 39°   Ceiling: 3900
Heat Index: 39°   Visibility: 9mi
Dew Point: 39°   Wind: 2mph
Humidity: 100%   Direction: 150°SSE
Pressure: 29.97"   Gusts: NA
Location:  44.5°N, 80.22°W
Report Text: CYBN 310600Z AUTO 15002KT 9SM -RA OVC039 04/04 A2997 RMKSLP155
Loading
Personal Weather Stations






























Interactive Weather Map
Tropical Storm Tracking
New forecast layout! Learn more

10-Day Weather Forecast

Advertisements
Track Severe Weather on mobile